Time;durP1;ratioP1;P1;durP2;ratioP2;P2;SDS_P1;SDS_P2;PMS_P1;PMS_P2;Temp;Humidity;BMP_temperature;BMP_pressure;BME280_temperature;BME280_humidity;BME280_pressure;Samples;Min_cycle;Max_cycle;Signal;HPM_P1;HPM_P2
2023/03/17 00:00:51;;;;;;;1.37;1.27;;;6.20;97.80;;;;;;5049343;28;20215;-50
2023/03/17 00:03:22;;;;;;;1.70;1.30;;;6.20;97.90;;;;;;5049017;28;20199;-48
2023/03/17 00:05:50;;;;;;;1.23;0.90;;;6.20;97.80;;;;;;5039456;28;20536;-51
2023/03/17 00:08:23;;;;;;;3.67;1.80;;;6.20;97.90;;;;;;5043452;28;20578;-49
2023/03/17 00:10:51;;;;;;;2.17;1.40;;;6.20;98.00;;;;;;5025643;28;20210;-49
2023/03/17 00:13:17;;;;;;;2.23;1.40;;;6.20;98.20;;;;;;5053573;28;20384;-48
2023/03/17 00:15:46;;;;;;;2.30;1.57;;;6.20;98.30;;;;;;5039243;28;20219;-54
2023/03/17 00:18:16;;;;;;;1.90;1.43;;;6.20;98.40;;;;;;5043517;28;20203;-46
2023/03/17 00:20:43;;;;;;;2.30;1.60;;;6.20;98.50;;;;;;5039651;28;20265;-54
2023/03/17 00:23:15;;;;;;;2.80;1.40;;;6.10;98.60;;;;;;5043373;28;20195;-49
2023/03/17 00:25:45;;;;;;;2.90;1.27;;;6.10;98.60;;;;;;5027986;28;20677;-58
2023/03/17 00:28:17;;;;;;;1.77;1.43;;;6.20;98.80;;;;;;5052530;28;20565;-51
2023/03/17 00:30:45;;;;;;;3.00;1.37;;;6.20;98.70;;;;;;5051876;28;20252;-54
2023/03/17 00:33:12;;;;;;;2.17;1.10;;;6.20;98.80;;;;;;5044365;28;20790;-47
2023/03/17 00:35:40;;;;;;;3.47;1.57;;;6.20;98.90;;;;;;5039175;28;20298;-55
2023/03/17 00:38:11;;;;;;;2.87;1.80;;;6.20;99.00;;;;;;5042330;28;20245;-47
2023/03/17 00:40:37;;;;;;;2.33;1.27;;;6.20;99.10;;;;;;5039476;28;20276;-54
2023/03/17 00:43:07;;;;;;;4.57;1.47;;;6.20;99.30;;;;;;5030115;28;20195;-45
2023/03/17 00:45:37;;;;;;;2.37;1.40;;;6.10;99.30;;;;;;5044684;28;20226;-54
2023/03/17 00:48:12;;;;;;;2.50;1.57;;;6.10;99.50;;;;;;5041391;28;20274;-46
2023/03/17 00:50:39;;;;;;;3.60;1.53;;;6.20;99.50;;;;;;5040416;28;20203;-52
2023/03/17 00:53:10;;;;;;;2.33;1.60;;;6.20;99.40;;;;;;5041695;28;20227;-48
2023/03/17 00:55:37;;;;;;;2.20;1.33;;;6.20;99.50;;;;;;5041026;28;20227;-53
2023/03/17 00:58:12;;;;;;;1.43;0.90;;;6.10;99.60;;;;;;5028604;28;20208;-48
2023/03/17 01:00:40;;;;;;;1.80;1.23;;;6.20;99.60;;;;;;5044990;28;20195;-52
2023/03/17 01:03:12;;;;;;;2.87;1.40;;;6.20;99.80;;;;;;5053456;28;20657;-47
2023/03/17 01:06:01;;;;;;;3.40;1.60;;;6.20;99.80;;;;;;5058272;28;20331;-48
2023/03/17 01:08:30;;;;;;;1.30;1.20;;;6.10;99.90;;;;;;5064055;28;20633;-54
2023/03/17 01:10:58;;;;;;;2.50;1.30;;;6.10;99.90;;;;;;5062643;28;20206;-46
2023/03/17 01:13:28;;;;;;;2.03;1.17;;;6.10;99.90;;;;;;5042772;28;20215;-52
2023/03/17 01:15:56;;;;;;;2.27;1.37;;;6.00;99.90;;;;;;5053532;28;20244;-51
2023/03/17 01:18:23;;;;;;;4.90;1.50;;;6.00;99.90;;;;;;5045368;28;20206;-47
2023/03/17 01:20:52;;;;;;;2.43;1.63;;;6.00;99.90;;;;;;5042734;28;20188;-49
2023/03/17 01:23:20;;;;;;;2.47;1.40;;;6.00;99.90;;;;;;5046257;28;20211;-49
2023/03/17 01:25:48;;;;;;;2.40;1.30;;;5.90;99.90;;;;;;5042613;28;20273;-48
2023/03/17 01:28:17;;;;;;;1.20;1.10;;;5.90;99.90;;;;;;5046469;28;20253;-48
2023/03/17 01:30:48;;;;;;;2.47;1.50;;;5.90;99.90;;;;;;5032895;28;20211;-52
2023/03/17 01:33:15;;;;;;;3.37;1.70;;;5.80;99.90;;;;;;5045872;28;20591;-49
2023/03/17 01:35:44;;;;;;;3.63;1.70;;;5.80;99.90;;;;;;5041378;28;20294;-51
2023/03/17 01:38:13;;;;;;;1.60;1.50;;;5.80;99.90;;;;;;5044941;28;20210;-47
2023/03/17 01:40:44;;;;;;;1.50;1.10;;;5.80;99.90;;;;;;5042273;28;20297;-53
2023/03/17 01:43:21;;;;;;;2.37;1.50;;;5.70;99.90;;;;;;5044883;28;20210;-51
2023/03/17 01:46:19;;;;;;;1.63;1.53;;;5.70;99.90;;;;;;5032471;28;20235;-45
2023/03/17 01:48:52;;;;;;;2.30;1.43;;;5.70;99.90;;;;;;5042434;28;20209;-48
2023/03/17 01:51:23;;;;;;;2.30;1.90;;;5.70;99.90;;;;;;5044783;28;20577;-46
2023/03/17 01:53:52;;;;;;;1.53;1.43;;;5.60;99.90;;;;;;5040535;28;20219;-49
2023/03/17 01:56:21;;;;;;;1.50;1.40;;;5.60;99.90;;;;;;5045771;28;20239;-52
2023/03/17 01:58:51;;;;;;;3.10;1.63;;;5.60;99.90;;;;;;5025601;28;20329;-49
2023/03/17 02:01:26;;;;;;;2.00;1.50;;;5.60;99.90;;;;;;5052265;28;20595;-46
2023/03/17 02:03:54;;;;;;;2.37;1.60;;;5.60;99.90;;;;;;5044209;28;20186;-46
2023/03/17 02:06:21;;;;;;;1.73;1.53;;;5.60;99.90;;;;;;5045880;28;20588;-46
2023/03/17 02:08:48;;;;;;;2.27;1.43;;;5.50;99.90;;;;;;5040559;28;20202;-49
2023/03/17 02:11:15;;;;;;;2.03;1.57;;;5.50;99.90;;;;;;5045618;28;20667;-46
2023/03/17 02:13:43;;;;;;;4.40;1.73;;;5.50;99.90;;;;;;5041158;28;20230;-53
2023/03/17 02:16:15;;;;;;;2.10;1.57;;;5.50;99.90;;;;;;5034790;28;20277;-46
2023/03/17 02:18:44;;;;;;;1.80;1.70;;;5.50;99.90;;;;;;5042280;28;20701;-55
2023/03/17 02:21:33;;;;;;;1.73;1.63;;;5.50;99.90;;;;;;5043877;28;20585;-48
2023/03/17 02:24:04;;;;;;;2.60;1.80;;;5.40;99.90;;;;;;5043332;28;20286;-51
2023/03/17 02:26:34;;;;;;;2.67;1.70;;;5.40;99.90;;;;;;5044623;28;20225;-53
2023/03/17 02:29:02;;;;;;;2.63;1.77;;;5.40;99.90;;;;;;5043972;28;20191;-46
2023/03/17 02:31:29;;;;;;;3.93;1.50;;;5.40;99.90;;;;;;5034758;28;20210;-52
2023/03/17 02:33:56;;;;;;;2.27;1.60;;;5.40;99.90;;;;;;5045684;28;20230;-54
2023/03/17 02:36:23;;;;;;;1.87;1.77;;;5.40;99.90;;;;;;5042745;28;20904;-49
2023/03/17 02:38:53;;;;;;;2.37;1.80;;;5.40;99.90;;;;;;5044821;28;20209;-53
2023/03/17 02:41:20;;;;;;;4.90;1.83;;;5.40;99.90;;;;;;5042454;28;20280;-47
2023/03/17 02:43:47;;;;;;;3.23;1.83;;;5.40;99.90;;;;;;5041898;28;20203;-49
2023/03/17 02:46:15;;;;;;;2.43;1.73;;;5.40;99.90;;;;;;5025574;28;20227;-46
2023/03/17 02:48:42;;;;;;;3.03;2.03;;;5.40;99.90;;;;;;5047110;28;20203;-50
2023/03/17 02:51:10;;;;;;;2.03;1.77;;;5.40;99.90;;;;;;5047166;28;20503;-48
2023/03/17 02:53:36;;;;;;;3.17;1.87;;;5.40;99.90;;;;;;5044662;28;20223;-49
2023/03/17 02:56:06;;;;;;;2.07;1.70;;;5.40;99.90;;;;;;5042379;28;20579;-53
2023/03/17 02:58:32;;;;;;;2.70;2.10;;;5.40;99.90;;;;;;5044463;28;20260;-47
2023/03/17 03:01:00;;;;;;;4.07;3.00;;;5.40;99.90;;;;;;5051070;28;20203;-53
2023/03/17 03:03:27;;;;;;;3.17;1.87;;;5.40;99.90;;;;;;5037660;28;21041;-50
2023/03/17 03:05:54;;;;;;;4.40;2.00;;;5.40;99.90;;;;;;5053272;28;20251;-53
2023/03/17 03:08:21;;;;;;;3.37;1.90;;;5.40;99.90;;;;;;5042045;28;20205;-46
2023/03/17 03:10:48;;;;;;;2.00;1.77;;;5.40;99.90;;;;;;5044559;28;20282;-48
2023/03/17 03:13:17;;;;;;;2.37;1.80;;;5.40;99.90;;;;;;5040785;28;20210;-47
2023/03/17 03:15:44;;;;;;;3.27;2.00;;;5.40;99.90;;;;;;5043979;28;20219;-45
2023/03/17 03:18:11;;;;;;;3.50;2.10;;;5.40;99.90;;;;;;5029923;28;20199;-47
2023/03/17 03:20:38;;;;;;;2.67;2.10;;;5.40;99.90;;;;;;5049579;28;20214;-47
2023/03/17 03:23:05;;;;;;;2.80;2.13;;;5.40;99.90;;;;;;5040938;28;20209;-52
2023/03/17 03:25:31;;;;;;;2.00;1.60;;;5.40;99.90;;;;;;5050532;28;20688;-48
2023/03/17 03:27:59;;;;;;;2.33;2.13;;;5.40;99.90;;;;;;5053200;28;20628;-55
2023/03/17 03:30:28;;;;;;;2.77;2.20;;;5.40;99.90;;;;;;5042533;28;20187;-45
2023/03/17 03:32:55;;;;;;;3.27;1.90;;;5.40;99.90;;;;;;5027755;28;20230;-53
2023/03/17 03:35:22;;;;;;;2.83;2.17;;;5.40;99.90;;;;;;5052790;28;20916;-46
2023/03/17 03:37:50;;;;;;;2.20;1.70;;;5.40;99.90;;;;;;5045365;28;20246;-52
2023/03/17 03:40:17;;;;;;;3.73;1.87;;;5.40;99.90;;;;;;5040518;28;20203;-46
2023/03/17 03:43:06;;;;;;;2.83;1.97;;;5.40;99.90;;;;;;5053383;28;20214;-54
2023/03/17 03:45:35;;;;;;;4.30;2.07;;;5.40;99.90;;;;;;5043713;28;20943;-47
2023/03/17 03:48:03;;;;;;;2.17;1.97;;;5.40;99.90;;;;;;5041209;28;20221;-51
2023/03/17 03:50:30;;;;;;;2.40;2.10;;;5.40;99.90;;;;;;5055098;28;20852;-47
2023/03/17 03:52:57;;;;;;;3.47;2.10;;;5.40;99.90;;;;;;5043113;28;20668;-54
2023/03/17 03:55:24;;;;;;;1.97;1.77;;;5.40;99.90;;;;;;5047713;28;20364;-48
2023/03/17 03:57:51;;;;;;;4.03;2.03;;;5.40;99.90;;;;;;5049890;28;20202;-53
2023/03/17 04:00:19;;;;;;;2.27;2.07;;;5.40;99.90;;;;;;5040195;28;20195;-50
2023/03/17 04:02:48;;;;;;;3.70;2.00;;;5.30;99.90;;;;;;5041341;28;20245;-48
2023/03/17 04:05:16;;;;;;;2.83;1.73;;;5.30;99.90;;;;;;5024966;28;20219;-49
2023/03/17 04:07:43;;;;;;;2.90;2.10;;;5.30;99.90;;;;;;5053754;28;20194;-46
2023/03/17 04:10:11;;;;;;;2.33;1.93;;;5.30;99.90;;;;;;5039635;28;20977;-51
2023/03/17 04:12:37;;;;;;;2.33;2.13;;;5.20;99.90;;;;;;5043284;28;20203;-51
2023/03/17 04:15:06;;;;;;;2.57;1.90;;;5.20;99.90;;;;;;5040270;28;20215;-53
2023/03/17 04:17:32;;;;;;;2.20;2.00;;;5.20;99.90;;;;;;5042779;28;20202;-46
2023/03/17 04:20:01;;;;;;;2.53;2.17;;;5.20;99.90;;;;;;5032558;28;20662;-55
2023/03/17 04:22:29;;;;;;;4.20;2.40;;;5.20;99.90;;;;;;5044637;28;20249;-47
2023/03/17 04:24:56;;;;;;;2.53;2.00;;;5.20;99.90;;;;;;5045310;28;20230;-54
2023/03/17 04:27:23;;;;;;;2.93;2.50;;;5.20;99.90;;;;;;5051250;28;20198;-47
2023/03/17 04:29:50;;;;;;;3.47;2.50;;;5.10;99.90;;;;;;5048273;28;20202;-53
2023/03/17 04:32:16;;;;;;;2.67;2.43;;;5.10;99.90;;;;;;5046114;28;20926;-49
2023/03/17 04:34:43;;;;;;;2.67;2.20;;;5.10;99.90;;;;;;5043149;28;20223;-47
2023/03/17 04:37:11;;;;;;;4.80;2.40;;;5.10;99.90;;;;;;5027019;28;20211;-51
2023/03/17 04:39:38;;;;;;;3.20;2.30;;;5.10;99.90;;;;;;5056246;28;20190;-51
2023/03/17 04:42:06;;;;;;;2.60;2.40;;;5.10;99.90;;;;;;5044101;28;20199;-51
2023/03/17 04:44:33;;;;;;;2.97;2.20;;;5.10;99.90;;;;;;5046749;28;20199;-47
2023/03/17 04:47:00;;;;;;;6.60;2.30;;;5.10;99.90;;;;;;5044677;28;20207;-53
2023/03/17 04:49:28;;;;;;;2.77;2.40;;;5.10;99.90;;;;;;5045645;28;20191;-50
2023/03/17 04:51:55;;;;;;;3.10;2.23;;;5.10;99.90;;;;;;5040402;28;20253;-55
2023/03/17 04:54:24;;;;;;;5.83;2.73;;;5.10;99.90;;;;;;5048661;28;20318;-50
2023/03/17 04:56:50;;;;;;;3.23;2.03;;;5.10;99.90;;;;;;5046919;28;20219;-51
2023/03/17 04:59:18;;;;;;;3.10;2.57;;;5.10;99.90;;;;;;5044338;28;20195;-47
2023/03/17 05:01:45;;;;;;;2.90;2.60;;;5.10;99.90;;;;;;5062855;28;20657;-49
2023/03/17 05:04:11;;;;;;;2.43;2.23;;;5.10;99.90;;;;;;5044762;28;20194;-49
2023/03/17 05:06:38;;;;;;;4.73;2.53;;;5.10;99.90;;;;;;5046755;28;20585;-48
2023/03/17 05:09:09;;;;;;;2.63;2.10;;;5.10;99.90;;;;;;5029176;28;20211;-55
2023/03/17 05:11:38;;;;;;;2.80;2.30;;;5.10;99.90;;;;;;5057446;28;20199;-50
2023/03/17 05:14:05;;;;;;;3.13;2.60;;;5.10;99.90;;;;;;5042913;28;20215;-54
2023/03/17 05:16:31;;;;;;;2.73;2.53;;;5.10;99.90;;;;;;5044555;28;20227;-50
2023/03/17 05:18:59;;;;;;;4.77;2.67;;;5.10;99.90;;;;;;5044783;28;20576;-52
2023/03/17 05:21:25;;;;;;;4.60;2.83;;;5.10;99.90;;;;;;5044692;28;20202;-46
2023/03/17 05:23:53;;;;;;;3.03;2.43;;;5.00;99.90;;;;;;5043749;28;20250;-51
2023/03/17 05:26:20;;;;;;;3.93;2.40;;;5.00;99.90;;;;;;5050204;28;20226;-48
2023/03/17 05:28:48;;;;;;;4.27;3.10;;;5.00;99.90;;;;;;5046110;28;20685;-47
2023/03/17 05:31:33;;;;;;;4.30;2.70;;;5.00;99.90;;;;;;5048556;28;20205;-46
2023/03/17 05:34:01;;;;;;;2.80;2.27;;;5.00;99.90;;;;;;5049173;28;20281;-54
2023/03/17 05:36:28;;;;;;;4.40;2.60;;;5.00;99.90;;;;;;5044950;28;20242;-46
2023/03/17 05:38:55;;;;;;;3.97;2.20;;;4.90;99.90;;;;;;5032854;28;20666;-54
2023/03/17 05:41:23;;;;;;;2.53;2.33;;;4.90;99.90;;;;;;5048268;28;20196;-51
2023/03/17 05:43:51;;;;;;;3.90;2.33;;;4.90;99.90;;;;;;5049347;28;20209;-51
2023/03/17 05:46:17;;;;;;;3.33;2.60;;;4.90;99.90;;;;;;5042258;28;20341;-48
2023/03/17 05:48:47;;;;;;;3.07;2.47;;;4.90;99.90;;;;;;5044759;28;20208;-49
2023/03/17 05:51:14;;;;;;;2.83;2.50;;;4.90;99.90;;;;;;5042142;28;20229;-46
2023/03/17 05:53:44;;;;;;;2.80;2.60;;;4.90;99.90;;;;;;5045693;28;20211;-48
2023/03/17 05:56:12;;;;;;;5.17;2.77;;;4.90;99.90;;;;;;5039840;28;20230;-51
2023/03/17 05:58:39;;;;;;;2.97;2.60;;;4.90;99.90;;;;;;5050831;28;20196;-46
2023/03/17 06:01:08;;;;;;;3.70;2.87;;;4.90;99.90;;;;;;5053644;28;20196;-55
2023/03/17 06:03:37;;;;;;;3.63;2.93;;;4.90;99.90;;;;;;5047227;28;20706;-48
2023/03/17 06:06:04;;;;;;;3.47;2.70;;;5.00;99.90;;;;;;5051803;28;20225;-54
2023/03/17 06:08:31;;;;;;;3.60;2.70;;;5.00;99.90;;;;;;5045200;28;20196;-48
2023/03/17 06:10:59;;;;;;;4.60;2.90;;;5.00;99.90;;;;;;5031261;28;20207;-54
2023/03/17 06:13:26;;;;;;;3.33;2.87;;;5.00;99.90;;;;;;5044978;28;20207;-47
2023/03/17 06:15:53;;;;;;;3.30;3.00;;;5.00;99.90;;;;;;5044817;28;20740;-52
2023/03/17 06:18:21;;;;;;;5.00;3.00;;;5.10;99.90;;;;;;5042275;28;21014;-46
2023/03/17 06:20:47;;;;;;;3.67;2.90;;;5.10;99.90;;;;;;5045506;28;20609;-49
2023/03/17 06:23:14;;;;;;;3.30;2.80;;;5.10;99.90;;;;;;5041438;28;20199;-47
2023/03/17 06:25:41;;;;;;;3.50;2.93;;;5.10;99.90;;;;;;5030568;28;20239;-48
2023/03/17 06:28:10;;;;;;;2.80;2.50;;;5.10;99.90;;;;;;5052312;28;20206;-46
2023/03/17 06:30:37;;;;;;;2.87;2.60;;;5.20;99.90;;;;;;5048005;28;20718;-50
2023/03/17 06:33:05;;;;;;;3.63;2.53;;;5.20;99.90;;;;;;5047762;28;20209;-54
2023/03/17 06:35:33;;;;;;;4.50;2.67;;;5.20;99.90;;;;;;5051085;28;20218;-47
2023/03/17 06:38:02;;;;;;;4.47;3.10;;;5.30;99.90;;;;;;5045349;28;20204;-54
2023/03/17 06:40:30;;;;;;;2.70;2.50;;;5.30;99.90;;;;;;5028957;28;20286;-47
2023/03/17 06:42:57;;;;;;;3.27;2.70;;;5.30;99.90;;;;;;5050071;28;20203;-55
2023/03/17 06:45:24;;;;;;;3.80;3.23;;;5.30;99.90;;;;;;5050915;28;20298;-48
2023/03/17 06:47:53;;;;;;;4.80;3.10;;;5.40;99.90;;;;;;5043536;28;20290;-55
2023/03/17 06:50:19;;;;;;;3.83;3.27;;;5.40;99.90;;;;;;5042032;28;20285;-50
2023/03/17 06:52:47;;;;;;;4.33;2.67;;;5.40;99.90;;;;;;5044561;28;20203;-49
2023/03/17 06:55:14;;;;;;;4.50;2.90;;;5.40;99.90;;;;;;5040686;28;20219;-49
2023/03/17 06:57:42;;;;;;;4.17;2.77;;;5.50;99.90;;;;;;5029913;28;20211;-48
2023/03/17 07:00:12;;;;;;;4.23;2.90;;;5.60;99.90;;;;;;5049942;28;20195;-47
2023/03/17 07:02:40;;;;;;;2.80;2.43;;;5.70;99.90;;;;;;5049071;28;20556;-50
2023/03/17 07:05:08;;;;;;;4.53;3.53;;;5.70;99.90;;;;;;5050352;28;20318;-52
2023/03/17 07:07:35;;;;;;;3.07;2.77;;;5.80;99.90;;;;;;5044419;28;20204;-48
2023/03/17 07:10:04;;;;;;;3.33;3.00;;;5.80;99.90;;;;;;5041878;28;20676;-54
2023/03/17 07:12:31;;;;;;;3.70;2.93;;;5.90;99.90;;;;;;5031434;28;20528;-48
2023/03/17 07:14:59;;;;;;;4.07;3.03;;;5.90;99.90;;;;;;5048980;28;20288;-52
2023/03/17 07:17:25;;;;;;;3.40;3.10;;;5.90;99.90;;;;;;5042714;28;20199;-47
2023/03/17 07:19:52;;;;;;;3.67;2.80;;;5.90;99.90;;;;;;5043262;28;20717;-50
2023/03/17 07:22:19;;;;;;;5.57;3.30;;;6.00;99.90;;;;;;5041210;28;20681;-46
2023/03/17 07:24:47;;;;;;;5.43;3.40;;;6.00;99.90;;;;;;5044136;28;20226;-46
2023/03/17 07:27:16;;;;;;;4.00;2.93;;;6.10;99.90;;;;;;5025984;28;21771;-50
2023/03/17 07:29:43;;;;;;;4.23;3.17;;;6.20;99.90;;;;;;5050613;28;20205;-49
2023/03/17 07:32:10;;;;;;;4.67;3.30;;;6.30;99.90;;;;;;5051446;28;20864;-49
2023/03/17 07:34:37;;;;;;;4.57;3.07;;;6.40;99.90;;;;;;5045217;28;20577;-49
2023/03/17 07:37:05;;;;;;;3.80;3.37;;;6.40;99.90;;;;;;5040972;28;20195;-55
2023/03/17 07:39:33;;;;;;;4.20;3.17;;;6.50;99.90;;;;;;5043529;28;20200;-47
2023/03/17 07:41:59;;;;;;;5.93;3.37;;;6.60;99.90;;;;;;5041627;28;20261;-52
2023/03/17 07:44:29;;;;;;;4.03;2.67;;;6.70;99.90;;;;;;5036005;28;20341;-47
2023/03/17 07:46:56;;;;;;;4.67;3.70;;;6.70;99.90;;;;;;5047856;28;20253;-55
2023/03/17 07:49:22;;;;;;;4.17;3.17;;;6.80;99.90;;;;;;5041784;28;20211;-48
2023/03/17 07:51:49;;;;;;;3.27;2.93;;;6.90;99.90;;;;;;5043768;28;20229;-53
2023/03/17 07:54:16;;;;;;;3.40;3.10;;;6.90;99.90;;;;;;5051327;28;20822;-48
2023/03/17 07:56:43;;;;;;;5.17;3.23;;;7.00;99.90;;;;;;5062811;28;20219;-48
2023/03/17 07:59:10;;;;;;;3.37;3.07;;;7.20;99.90;;;;;;5040794;28;20198;-52
2023/03/17 08:01:38;;;;;;;3.80;3.10;;;7.30;99.90;;;;;;5052463;28;20199;-52
2023/03/17 08:04:06;;;;;;;4.33;3.50;;;7.50;99.90;;;;;;5045692;28;20566;-51
2023/03/17 08:06:32;;;;;;;3.67;3.37;;;7.50;99.90;;;;;;5043274;28;20577;-50
2023/03/17 08:09:00;;;;;;;6.23;3.13;;;7.60;99.90;;;;;;5041799;28;20207;-53
2023/03/17 08:11:26;;;;;;;4.13;2.80;;;7.70;99.90;;;;;;5041094;28;20257;-51
2023/03/17 08:13:54;;;;;;;5.27;3.00;;;7.90;99.90;;;;;;5037060;28;20231;-52
2023/03/17 08:16:20;;;;;;;7.03;3.10;;;8.00;99.90;;;;;;5045483;28;20230;-48
2023/03/17 08:18:49;;;;;;;6.23;2.93;;;8.20;99.90;;;;;;5047665;28;20206;-48
2023/03/17 08:21:16;;;;;;;3.37;2.73;;;8.20;99.90;;;;;;5039585;28;20191;-48
2023/03/17 08:23:43;;;;;;;4.77;3.27;;;8.40;99.90;;;;;;5043157;28;20697;-50
2023/03/17 08:26:10;;;;;;;5.00;3.07;;;8.40;99.90;;;;;;5039114;28;20218;-50
2023/03/17 08:28:37;;;;;;;4.13;2.80;;;8.40;99.90;;;;;;5043022;28;20203;-48
2023/03/17 08:31:09;;;;;;;7.63;3.10;;;8.40;99.90;;;;;;5035714;28;20194;-51
2023/03/17 08:33:36;;;;;;;3.87;3.53;;;8.50;99.90;;;;;;5046986;28;20201;-48
2023/03/17 08:36:08;;;;;;;3.27;2.97;;;8.50;99.90;;;;;;5042107;28;20223;-53
2023/03/17 08:38:36;;;;;;;3.43;3.03;;;8.60;99.90;;;;;;5042977;28;20199;-52
2023/03/17 08:41:03;;;;;;;5.83;3.50;;;8.70;99.90;;;;;;5040571;28;20230;-51
2023/03/17 08:43:30;;;;;;;5.90;2.90;;;8.70;99.90;;;;;;5042100;28;20252;-51
2023/03/17 08:46:03;;;;;;;4.40;2.60;;;8.70;99.90;;;;;;5032312;28;20276;-51
2023/03/17 08:48:30;;;;;;;5.97;3.60;;;8.80;99.90;;;;;;5058878;28;20195;-49
2023/03/17 08:50:58;;;;;;;4.20;3.20;;;8.90;99.90;;;;;;5041681;28;20743;-50
2023/03/17 08:53:26;;;;;;;3.63;3.30;;;9.00;99.90;;;;;;5040872;28;20203;-51
2023/03/17 08:55:54;;;;;;;4.50;3.17;;;9.10;99.90;;;;;;5042373;28;20227;-51
2023/03/17 08:58:21;;;;;;;6.47;3.03;;;9.30;99.90;;;;;;5040570;28;20254;-48
2023/03/17 09:00:48;;;;;;;3.23;2.30;;;9.40;99.90;;;;;;5053452;28;20320;-49
2023/03/17 09:03:37;;;;;;;3.17;2.80;;;9.60;99.90;;;;;;5046049;28;20684;-48
2023/03/17 09:06:05;;;;;;;3.90;2.90;;;9.80;99.90;;;;;;5039812;28;20242;-52
2023/03/17 09:08:36;;;;;;;4.47;3.23;;;9.90;99.90;;;;;;5042391;28;20211;-51
2023/03/17 09:11:05;;;;;;;3.33;2.83;;;10.00;99.90;;;;;;5039859;28;20199;-52
2023/03/17 09:13:32;;;;;;;5.27;2.67;;;10.00;99.90;;;;;;5042337;28;20729;-49
2023/03/17 09:16:01;;;;;;;3.40;2.43;;;10.00;99.90;;;;;;5040074;28;20285;-53
2023/03/17 09:18:30;;;;;;;3.13;2.67;;;10.00;99.90;;;;;;5029661;28;20207;-49
2023/03/17 09:20:56;;;;;;;3.20;2.83;;;10.10;99.90;;;;;;5052243;28;20227;-50
2023/03/17 09:23:23;;;;;;;5.07;2.67;;;10.20;99.90;;;;;;5043336;28;20225;-49
2023/03/17 09:25:52;;;;;;;5.93;2.80;;;10.30;99.90;;;;;;5046365;28;20212;-50
2023/03/17 09:28:19;;;;;;;3.73;2.90;;;10.50;99.90;;;;;;5043120;28;20203;-48
2023/03/17 09:30:46;;;;;;;2.77;2.47;;;10.60;99.90;;;;;;5053989;28;20643;-50
2023/03/17 09:33:14;;;;;;;3.40;2.87;;;10.80;99.90;;;;;;5030433;28;20202;-48
2023/03/17 09:35:41;;;;;;;3.37;2.43;;;11.10;99.90;;;;;;5053163;28;20737;-48
2023/03/17 09:38:09;;;;;;;3.10;2.30;;;11.30;99.90;;;;;;5042592;28;20650;-52
2023/03/17 09:40:46;;;;;;;3.10;2.40;;;11.50;99.90;;;;;;5045220;28;20632;-49
2023/03/17 09:43:25;;;;;;;3.70;2.70;;;11.70;99.90;;;;;;5041527;28;20197;-50
2023/03/17 09:45:52;;;;;;;5.03;2.10;;;11.80;99.10;;;;;;5045142;28;20211;-50
2023/03/17 09:48:35;;;;;;;4.40;2.30;;;11.80;98.70;;;;;;5029437;28;20226;-51
2023/03/17 09:51:05;;;;;;;4.60;2.50;;;11.90;98.10;;;;;;5050071;28;20206;-54
2023/03/17 09:53:36;;;;;;;2.50;2.30;;;11.90;98.60;;;;;;5049886;28;20256;-48
2023/03/17 09:56:08;;;;;;;3.47;2.47;;;11.90;97.80;;;;;;5043034;28;20223;-51
2023/03/17 09:58:39;;;;;;;3.00;2.47;;;11.90;97.60;;;;;;5045769;28;20208;-51
2023/03/17 10:01:08;;;;;;;4.03;2.90;;;12.00;97.60;;;;;;5051615;28;20728;-52
2023/03/17 10:03:36;;;;;;;2.57;2.37;;;12.10;97.90;;;;;;5034111;28;20264;-49
2023/03/17 10:06:31;;;;;;;5.27;2.73;;;12.20;97.90;;;;;;5054326;28;20250;-52
2023/03/17 10:09:04;;;;;;;3.53;2.30;;;12.30;97.40;;;;;;5043965;28;20286;-51
2023/03/17 10:11:39;;;;;;;3.77;2.40;;;12.40;97.20;;;;;;5045077;28;20208;-48
2023/03/17 10:14:22;;;;;;;5.43;2.50;;;12.50;97.00;;;;;;5042014;28;20283;-50
2023/03/17 10:16:55;;;;;;;2.70;2.50;;;12.60;96.50;;;;;;5044907;28;20227;-49
2023/03/17 10:19:26;;;;;;;3.93;2.23;;;12.40;96.40;;;;;;5027927;28;20293;-52
2023/03/17 10:21:57;;;;;;;2.70;2.37;;;12.50;96.70;;;;;;5046541;28;20214;-48
2023/03/17 10:24:25;;;;;;;3.73;2.33;;;12.50;96.10;;;;;;5048494;28;20196;-53
2023/03/17 10:26:56;;;;;;;2.50;2.30;;;12.50;96.10;;;;;;5045156;28;20199;-51
2023/03/17 10:29:24;;;;;;;3.40;2.57;;;12.50;96.10;;;;;;5056201;28;20194;-49
2023/03/17 10:31:52;;;;;;;5.53;2.80;;;12.60;95.90;;;;;;5054371;28;20206;-52
2023/03/17 10:34:22;;;;;;;5.13;2.77;;;12.60;96.00;;;;;;5047903;28;20206;-49
2023/03/17 10:36:54;;;;;;;3.60;2.43;;;12.70;95.80;;;;;;5036577;28;20226;-50
2023/03/17 10:39:23;;;;;;;4.10;2.27;;;12.70;95.80;;;;;;5046731;28;20767;-46
2023/03/17 10:41:56;;;;;;;4.00;2.23;;;12.80;95.80;;;;;;5049363;28;20209;-53
2023/03/17 10:44:36;;;;;;;2.13;2.00;;;12.80;95.40;;;;;;5049484;28;20944;-49
2023/03/17 10:47:03;;;;;;;2.40;2.20;;;12.90;95.40;;;;;;5044539;28;20213;-51
2023/03/17 10:49:35;;;;;;;4.03;2.40;;;12.90;95.70;;;;;;5044405;28;20207;-48
2023/03/17 10:52:07;;;;;;;4.60;2.00;;;13.00;95.30;;;;;;5026928;28;20203;-50
2023/03/17 10:54:36;;;;;;;2.57;2.07;;;13.10;95.50;;;;;;5056062;28;20205;-48
2023/03/17 10:57:06;;;;;;;3.73;2.47;;;13.20;95.10;;;;;;5043178;28;20219;-51
2023/03/17 10:59:43;;;;;;;2.33;2.03;;;13.30;95.20;;;;;;5044698;28;20192;-47
2023/03/17 11:02:25;;;;;;;3.07;2.37;;;13.40;94.70;;;;;;5052495;28;20273;-48
2023/03/17 11:04:58;;;;;;;2.43;2.03;;;13.40;95.10;;;;;;5063329;28;20218;-52
2023/03/17 11:07:28;;;;;;;3.40;1.90;;;13.60;95.10;;;;;;5036367;28;20199;-48
2023/03/17 11:09:58;;;;;;;4.00;2.20;;;13.80;94.50;;;;;;5054170;28;20309;-49
2023/03/17 11:12:28;;;;;;;3.03;1.70;;;13.90;94.30;;;;;;5052016;28;20214;-49
2023/03/17 11:14:59;;;;;;;2.70;1.80;;;13.90;93.80;;;;;;5050890;28;20302;-51
2023/03/17 11:17:38;;;;;;;2.93;2.00;;;14.00;93.30;;;;;;5042469;28;20191;-47
2023/03/17 11:20:39;;;;;;;2.70;2.10;;;14.10;93.20;;;;;;5041637;28;20214;-50
2023/03/17 11:23:14;;;;;;;2.50;1.97;;;14.20;93.00;;;;;;5036514;28;20215;-50
2023/03/17 11:25:46;;;;;;;2.73;2.23;;;14.30;92.60;;;;;;5051138;28;20640;-48
2023/03/17 11:28:19;;;;;;;2.00;1.80;;;14.40;92.20;;;;;;5040780;28;20246;-49
2023/03/17 11:31:02;;;;;;;3.70;2.10;;;14.20;91.80;;;;;;5063856;28;20222;-48
2023/03/17 11:33:35;;;;;;;2.47;2.00;;;14.30;91.50;;;;;;5042769;28;20196;-49
2023/03/17 11:36:11;;;;;;;2.30;1.87;;;14.40;91.70;;;;;;5041197;28;20215;-49
2023/03/17 11:38:49;;;;;;;2.43;1.70;;;14.40;91.00;;;;;;5037123;28;20646;-48
2023/03/17 11:41:35;;;;;;;2.93;1.63;;;14.30;90.90;;;;;;5050888;28;20846;-48
2023/03/17 11:44:28;;;;;;;3.30;2.20;;;14.40;91.10;;;;;;5052840;28;20199;-51
2023/03/17 11:47:02;;;;;;;2.10;1.90;;;14.40;90.90;;;;;;5039100;28;20223;-51
2023/03/17 11:49:35;;;;;;;1.87;1.63;;;14.60;90.80;;;;;;5043047;28;20206;-50
2023/03/17 11:52:11;;;;;;;2.90;1.90;;;14.60;90.90;;;;;;5041422;28;20213;-51
2023/03/17 11:54:47;;;;;;;3.30;1.87;;;14.70;90.70;;;;;;5036512;28;20264;-50
2023/03/17 11:57:20;;;;;;;2.23;1.50;;;14.80;90.50;;;;;;5042177;28;20218;-49
2023/03/17 11:59:52;;;;;;;4.67;2.00;;;14.80;90.70;;;;;;5044156;28;20206;-49
2023/03/17 12:02:28;;;;;;;3.43;1.87;;;14.90;90.40;;;;;;5039150;28;20194;-48
2023/03/17 12:04:59;;;;;;;2.30;2.10;;;14.90;89.30;;;;;;5042389;28;20233;-51
2023/03/17 12:07:31;;;;;;;1.73;1.57;;;14.90;90.20;;;;;;5042064;28;20310;-49
2023/03/17 12:10:06;;;;;;;2.47;2.10;;;14.90;90.40;;;;;;5035874;28;20207;-47
2023/03/17 12:12:38;;;;;;;2.90;1.77;;;15.00;90.10;;;;;;5057955;28;20251;-49
2023/03/17 12:15:14;;;;;;;2.63;2.20;;;15.10;90.40;;;;;;5043065;28;20255;-49
2023/03/17 12:17:50;;;;;;;2.80;1.97;;;15.20;90.00;;;;;;5043662;28;20778;-48
2023/03/17 12:20:21;;;;;;;2.83;1.73;;;15.30;90.00;;;;;;5040365;28;20218;-50
2023/03/17 12:22:56;;;;;;;2.30;1.73;;;15.30;89.90;;;;;;5052955;28;20281;-49
2023/03/17 12:25:26;;;;;;;2.10;1.70;;;15.30;89.10;;;;;;5035167;28;20223;-47
2023/03/17 12:28:00;;;;;;;2.27;1.90;;;15.30;90.00;;;;;;5049090;28;20220;-50
2023/03/17 12:30:31;;;;;;;2.00;1.80;;;15.50;89.10;;;;;;5042068;28;20187;-50
2023/03/17 12:33:11;;;;;;;2.87;2.10;;;15.50;88.50;;;;;;5041738;28;20207;-50
2023/03/17 12:35:39;;;;;;;3.30;1.87;;;15.60;87.70;;;;;;5056867;28;20211;-49
2023/03/17 12:38:12;;;;;;;2.40;1.80;;;15.60;87.60;;;;;;5058852;28;20198;-49
2023/03/17 12:40:55;;;;;;;2.60;1.70;;;15.60;86.90;;;;;;5043515;28;20209;-50
2023/03/17 12:43:35;;;;;;;2.60;1.67;;;15.60;87.30;;;;;;5056019;28;20201;-52
2023/03/17 12:46:30;;;;;;;1.73;1.17;;;15.80;86.10;;;;;;5045607;28;20245;-47
2023/03/17 12:49:34;;;;;;;1.97;1.57;;;15.90;86.00;;;;;;5041402;28;20206;-48
2023/03/17 12:52:14;;;;;;;1.90;1.40;;;16.00;83.30;;;;;;4999905;28;20218;-50
2023/03/17 12:54:46;;;;;;;3.10;1.70;;;16.10;85.00;;;;;;5042866;28;20674;-49
2023/03/17 12:57:17;;;;;;;2.30;1.60;;;16.20;84.30;;;;;;5039302;28;20236;-50
2023/03/17 12:59:48;;;;;;;2.87;1.50;;;16.30;83.60;;;;;;5052785;28;20571;-49
2023/03/17 13:02:22;;;;;;;2.07;1.80;;;16.30;94.00;;;;;;5041562;28;20901;-50
2023/03/17 13:04:56;;;;;;;2.57;2.00;;;16.40;81.40;;;;;;5051600;28;20219;-50
2023/03/17 13:07:26;;;;;;;2.80;1.50;;;16.60;81.70;;;;;;5064005;28;20206;-50